sensor_id;sensor_type;location;lat;lon;timestamp;temperature;humidity
4374;DHT22;2201;51.100;6.814;2022-07-12T00:01:43;16.90;98.20
4374;DHT22;2201;51.100;6.814;2022-07-12T00:04:11;16.80;98.20
4374;DHT22;2201;51.100;6.814;2022-07-12T00:06:37;16.80;98.20
4374;DHT22;2201;51.100;6.814;2022-07-12T00:09:05;16.80;98.20
4374;DHT22;2201;51.100;6.814;2022-07-12T00:11:32;16.70;98.20
4374;DHT22;2201;51.100;6.814;2022-07-12T00:14:02;16.70;98.20
4374;DHT22;2201;51.100;6.814;2022-07-12T00:16:28;16.70;98.20
4374;DHT22;2201;51.100;6.814;2022-07-12T00:18:56;16.60;98.20
4374;DHT22;2201;51.100;6.814;2022-07-12T00:21:23;16.60;98.20
4374;DHT22;2201;51.100;6.814;2022-07-12T00:23:50;16.60;98.20
4374;DHT22;2201;51.100;6.814;2022-07-12T00:26:17;16.60;98.20
4374;DHT22;2201;51.100;6.814;2022-07-12T00:28:44;16.50;98.20
4374;DHT22;2201;51.100;6.814;2022-07-12T00:31:13;16.50;98.20
4374;DHT22;2201;51.100;6.814;2022-07-12T00:33:44;16.50;98.20
4374;DHT22;2201;51.100;6.814;2022-07-12T00:36:11;16.50;98.20
4374;DHT22;2201;51.100;6.814;2022-07-12T00:38:38;16.40;98.20
4374;DHT22;2201;51.100;6.814;2022-07-12T00:41:05;16.40;98.20
4374;DHT22;2201;51.100;6.814;2022-07-12T00:43:34;16.40;98.20
4374;DHT22;2201;51.100;6.814;2022-07-12T00:46:01;16.30;98.20
4374;DHT22;2201;51.100;6.814;2022-07-12T00:48:31;16.30;98.20
4374;DHT22;2201;51.100;6.814;2022-07-12T00:50:58;16.30;98.20
4374;DHT22;2201;51.100;6.814;2022-07-12T00:53:25;16.20;98.20
4374;DHT22;2201;51.100;6.814;2022-07-12T00:55:55;16.20;98.20
4374;DHT22;2201;51.100;6.814;2022-07-12T00:58:23;16.20;98.20
4374;DHT22;2201;51.100;6.814;2022-07-12T01:00:50;16.20;98.20
4374;DHT22;2201;51.100;6.814;2022-07-12T01:03:19;16.20;98.20
4374;DHT22;2201;51.100;6.814;2022-07-12T01:05:48;16.20;98.20
4374;DHT22;2201;51.100;6.814;2022-07-12T01:08:24;16.10;98.20
4374;DHT22;2201;51.100;6.814;2022-07-12T01:10:52;16.10;98.20
4374;DHT22;2201;51.100;6.814;2022-07-12T01:13:21;16.10;98.20
4374;DHT22;2201;51.100;6.814;2022-07-12T01:15:49;16.10;98.20
4374;DHT22;2201;51.100;6.814;2022-07-12T01:18:18;16.10;98.20
4374;DHT22;2201;51.100;6.814;2022-07-12T01:20:46;16.00;98.20
4374;DHT22;2201;51.100;6.814;2022-07-12T01:23:15;16.00;98.20
4374;DHT22;2201;51.100;6.814;2022-07-12T01:25:42;15.90;98.20
4374;DHT22;2201;51.100;6.814;2022-07-12T01:28:10;15.90;98.20
4374;DHT22;2201;51.100;6.814;2022-07-12T01:30:37;15.90;98.20
4374;DHT22;2201;51.100;6.814;2022-07-12T01:33:04;15.90;98.20
4374;DHT22;2201;51.100;6.814;2022-07-12T01:35:32;15.90;98.20
4374;DHT22;2201;51.100;6.814;2022-07-12T01:37:59;15.90;98.20
4374;DHT22;2201;51.100;6.814;2022-07-12T01:40:28;15.90;98.20
4374;DHT22;2201;51.100;6.814;2022-07-12T01:42:55;15.90;98.20
4374;DHT22;2201;51.100;6.814;2022-07-12T01:45:22;15.80;98.20
4374;DHT22;2201;51.100;6.814;2022-07-12T01:47:49;15.80;98.20
4374;DHT22;2201;51.100;6.814;2022-07-12T01:50:16;15.80;98.20
4374;DHT22;2201;51.100;6.814;2022-07-12T01:52:44;15.80;98.20
4374;DHT22;2201;51.100;6.814;2022-07-12T01:55:12;15.70;98.20
4374;DHT22;2201;51.100;6.814;2022-07-12T01:57:41;15.70;98.20
4374;DHT22;2201;51.100;6.814;2022-07-12T02:00:10;15.70;98.20
4374;DHT22;2201;51.100;6.814;2022-07-12T02:02:37;15.60;98.20
4374;DHT22;2201;51.100;6.814;2022-07-12T02:05:06;15.60;98.20
4374;DHT22;2201;51.100;6.814;2022-07-12T02:07:33;15.60;98.20
4374;DHT22;2201;51.100;6.814;2022-07-12T02:10:00;15.60;98.20
4374;DHT22;2201;51.100;6.814;2022-07-12T02:12:27;15.60;98.20
4374;DHT22;2201;51.100;6.814;2022-07-12T02:14:56;15.50;98.20
4374;DHT22;2201;51.100;6.814;2022-07-12T02:17:23;15.50;98.20
4374;DHT22;2201;51.100;6.814;2022-07-12T02:19:51;15.50;98.20
4374;DHT22;2201;51.100;6.814;2022-07-12T02:22:18;15.50;98.20
4374;DHT22;2201;51.100;6.814;2022-07-12T02:24:46;15.40;98.20
4374;DHT22;2201;51.100;6.814;2022-07-12T02:27:15;15.40;98.20
4374;DHT22;2201;51.100;6.814;2022-07-12T02:29:43;15.40;98.20
4374;DHT22;2201;51.100;6.814;2022-07-12T02:32:11;15.40;98.20
4374;DHT22;2201;51.100;6.814;2022-07-12T02:34:39;15.30;98.20
4374;DHT22;2201;51.100;6.814;2022-07-12T02:37:06;15.30;98.20
4374;DHT22;2201;51.100;6.814;2022-07-12T02:39:33;15.30;98.20
4374;DHT22;2201;51.100;6.814;2022-07-12T02:42:00;15.30;98.20
4374;DHT22;2201;51.100;6.814;2022-07-12T02:44:27;15.30;98.20
4374;DHT22;2201;51.100;6.814;2022-07-12T02:46:54;15.20;98.20
4374;DHT22;2201;51.100;6.814;2022-07-12T02:49:23;15.20;98.20
4374;DHT22;2201;51.100;6.814;2022-07-12T02:51:50;15.20;98.20
4374;DHT22;2201;51.100;6.814;2022-07-12T02:54:16;15.20;98.20
4374;DHT22;2201;51.100;6.814;2022-07-12T02:56:44;15.20;98.20
4374;DHT22;2201;51.100;6.814;2022-07-12T02:59:11;15.10;98.20
4374;DHT22;2201;51.100;6.814;2022-07-12T03:01:39;15.10;98.20
4374;DHT22;2201;51.100;6.814;2022-07-12T03:04:06;15.10;98.20
4374;DHT22;2201;51.100;6.814;2022-07-12T03:06:34;15.10;98.20
4374;DHT22;2201;51.100;6.814;2022-07-12T03:09:02;15.10;98.20
4374;DHT22;2201;51.100;6.814;2022-07-12T03:11:29;15.00;98.20
4374;DHT22;2201;51.100;6.814;2022-07-12T03:13:58;15.00;98.20
4374;DHT22;2201;51.100;6.814;2022-07-12T03:16:25;15.00;98.20
4374;DHT22;2201;51.100;6.814;2022-07-12T03:18:52;15.00;98.20
4374;DHT22;2201;51.100;6.814;2022-07-12T03:21:19;15.10;98.20
4374;DHT22;2201;51.100;6.814;2022-07-12T03:23:48;15.10;98.20
4374;DHT22;2201;51.100;6.814;2022-07-12T03:26:15;15.10;98.20
4374;DHT22;2201;51.100;6.814;2022-07-12T03:28:42;15.00;98.20
4374;DHT22;2201;51.100;6.814;2022-07-12T03:31:10;15.10;98.20
4374;DHT22;2201;51.100;6.814;2022-07-12T03:33:37;15.10;98.20
4374;DHT22;2201;51.100;6.814;2022-07-12T03:36:05;15.10;98.20
4374;DHT22;2201;51.100;6.814;2022-07-12T03:38:34;15.10;98.20
4374;DHT22;2201;51.100;6.814;2022-07-12T03:41:03;15.10;98.20
4374;DHT22;2201;51.100;6.814;2022-07-12T03:43:31;15.10;98.20
4374;DHT22;2201;51.100;6.814;2022-07-12T03:45:58;15.10;98.20
4374;DHT22;2201;51.100;6.814;2022-07-12T03:48:25;15.10;98.20
4374;DHT22;2201;51.100;6.814;2022-07-12T03:50:52;15.10;98.20
4374;DHT22;2201;51.100;6.814;2022-07-12T03:53:21;15.10;98.20
4374;DHT22;2201;51.100;6.814;2022-07-12T03:55:48;15.10;98.20
4374;DHT22;2201;51.100;6.814;2022-07-12T03:58:17;15.10;98.20
4374;DHT22;2201;51.100;6.814;2022-07-12T04:00:45;15.10;98.20
4374;DHT22;2201;51.100;6.814;2022-07-12T04:03:12;15.20;98.20
4374;DHT22;2201;51.100;6.814;2022-07-12T04:05:39;15.20;98.20
4374;DHT22;2201;51.100;6.814;2022-07-12T04:08:07;15.20;98.20
4374;DHT22;2201;51.100;6.814;2022-07-12T04:10:34;15.20;98.20
4374;DHT22;2201;51.100;6.814;2022-07-12T04:13:01;15.20;98.20
4374;DHT22;2201;51.100;6.814;2022-07-12T04:15:29;15.30;98.20
4374;DHT22;2201;51.100;6.814;2022-07-12T04:17:56;15.30;98.20
4374;DHT22;2201;51.100;6.814;2022-07-12T04:20:24;15.30;98.20
4374;DHT22;2201;51.100;6.814;2022-07-12T04:22:51;15.30;98.20
4374;DHT22;2201;51.100;6.814;2022-07-12T04:25:18;15.40;98.20
4374;DHT22;2201;51.100;6.814;2022-07-12T04:27:45;15.40;98.20
4374;DHT22;2201;51.100;6.814;2022-07-12T04:30:13;15.40;98.20
4374;DHT22;2201;51.100;6.814;2022-07-12T04:32:41;15.50;98.20
4374;DHT22;2201;51.100;6.814;2022-07-12T04:35:08;15.50;98.20
4374;DHT22;2201;51.100;6.814;2022-07-12T04:37:36;15.50;98.20
4374;DHT22;2201;51.100;6.814;2022-07-12T04:40:04;15.60;98.20
4374;DHT22;2201;51.100;6.814;2022-07-12T04:42:31;15.60;98.20
4374;DHT22;2201;51.100;6.814;2022-07-12T04:44:58;15.70;98.20
4374;DHT22;2201;51.100;6.814;2022-07-12T04:47:26;15.70;98.20
4374;DHT22;2201;51.100;6.814;2022-07-12T04:49:54;15.80;98.20
4374;DHT22;2201;51.100;6.814;2022-07-12T04:52:21;15.90;98.20
4374;DHT22;2201;51.100;6.814;2022-07-12T04:54:50;16.00;98.20
4374;DHT22;2201;51.100;6.814;2022-07-12T04:57:19;16.20;98.20
4374;DHT22;2201;51.100;6.814;2022-07-12T04:59:47;16.30;98.20
4374;DHT22;2201;51.100;6.814;2022-07-12T05:02:14;16.60;98.20
4374;DHT22;2201;51.100;6.814;2022-07-12T05:04:42;16.80;98.20
4374;DHT22;2201;51.100;6.814;2022-07-12T05:07:11;17.00;98.20
4374;DHT22;2201;51.100;6.814;2022-07-12T05:09:38;17.20;98.20
4374;DHT22;2201;51.100;6.814;2022-07-12T05:12:09;17.50;98.20
4374;DHT22;2201;51.100;6.814;2022-07-12T05:14:45;17.60;98.20
4374;DHT22;2201;51.100;6.814;2022-07-12T05:17:23;17.80;98.20
4374;DHT22;2201;51.100;6.814;2022-07-12T05:19:50;18.00;98.20
4374;DHT22;2201;51.100;6.814;2022-07-12T05:22:28;18.10;98.20
4374;DHT22;2201;51.100;6.814;2022-07-12T05:24:55;18.30;98.20
4374;DHT22;2201;51.100;6.814;2022-07-12T05:27:25;18.50;98.20
4374;DHT22;2201;51.100;6.814;2022-07-12T05:29:52;18.70;98.20
4374;DHT22;2201;51.100;6.814;2022-07-12T05:32:20;18.90;98.20
4374;DHT22;2201;51.100;6.814;2022-07-12T05:34:47;19.10;98.20
4374;DHT22;2201;51.100;6.814;2022-07-12T05:37:18;19.30;98.20
4374;DHT22;2201;51.100;6.814;2022-07-12T05:39:47;19.50;98.20
4374;DHT22;2201;51.100;6.814;2022-07-12T05:42:19;19.70;98.20
4374;DHT22;2201;51.100;6.814;2022-07-12T05:44:56;19.90;98.20
4374;DHT22;2201;51.100;6.814;2022-07-12T05:47:44;20.00;98.20
4374;DHT22;2201;51.100;6.814;2022-07-12T05:50:18;20.10;98.20
4374;DHT22;2201;51.100;6.814;2022-07-12T05:52:46;20.10;98.20
4374;DHT22;2201;51.100;6.814;2022-07-12T05:55:33;20.30;98.20
4374;DHT22;2201;51.100;6.814;2022-07-12T05:58:05;20.40;98.20
4374;DHT22;2201;51.100;6.814;2022-07-12T06:00:33;20.40;98.20
4374;DHT22;2201;51.100;6.814;2022-07-12T06:03:00;20.50;98.20
4374;DHT22;2201;51.100;6.814;2022-07-12T06:05:28;20.60;98.20
4374;DHT22;2201;51.100;6.814;2022-07-12T06:07:58;20.70;98.20
4374;DHT22;2201;51.100;6.814;2022-07-12T06:10:37;20.80;98.20
4374;DHT22;2201;51.100;6.814;2022-07-12T06:13:10;20.90;98.20
4374;DHT22;2201;51.100;6.814;2022-07-12T06:15:46;21.10;98.20
4374;DHT22;2201;51.100;6.814;2022-07-12T06:18:14;21.40;98.20
4374;DHT22;2201;51.100;6.814;2022-07-12T06:20:42;21.50;98.20
4374;DHT22;2201;51.100;6.814;2022-07-12T06:23:10;21.60;98.20
4374;DHT22;2201;51.100;6.814;2022-07-12T06:25:40;21.90;98.20
4374;DHT22;2201;51.100;6.814;2022-07-12T06:28:13;22.30;98.20
4374;DHT22;2201;51.100;6.814;2022-07-12T06:30:41;22.40;97.80
4374;DHT22;2201;51.100;6.814;2022-07-12T06:33:09;22.60;98.00
4374;DHT22;2201;51.100;6.814;2022-07-12T06:35:43;23.00;96.80
4374;DHT22;2201;51.100;6.814;2022-07-12T06:38:29;23.20;96.30
4374;DHT22;2201;51.100;6.814;2022-07-12T06:41:17;23.50;95.00
4374;DHT22;2201;51.100;6.814;2022-07-12T06:43:47;23.70;94.60
4374;DHT22;2201;51.100;6.814;2022-07-12T06:46:29;23.90;94.20
4374;DHT22;2201;51.100;6.814;2022-07-12T06:48:59;24.10;93.30
4374;DHT22;2201;51.100;6.814;2022-07-12T06:51:26;24.20;93.40
4374;DHT22;2201;51.100;6.814;2022-07-12T06:53:57;24.40;92.60
4374;DHT22;2201;51.100;6.814;2022-07-12T06:56:26;24.60;92.10
4374;DHT22;2201;51.100;6.814;2022-07-12T06:58:58;24.70;92.50
4374;DHT22;2201;51.100;6.814;2022-07-12T07:01:26;24.90;91.00
4374;DHT22;2201;51.100;6.814;2022-07-12T07:03:53;25.10;90.70
4374;DHT22;2201;51.100;6.814;2022-07-12T07:06:21;25.20;90.70
4374;DHT22;2201;51.100;6.814;2022-07-12T07:08:49;25.30;90.50
4374;DHT22;2201;51.100;6.814;2022-07-12T07:11:20;25.50;90.50
4374;DHT22;2201;51.100;6.814;2022-07-12T07:13:52;25.70;89.80
4374;DHT22;2201;51.100;6.814;2022-07-12T07:16:21;25.90;87.70
4374;DHT22;2201;51.100;6.814;2022-07-12T07:18:54;26.00;87.10
4374;DHT22;2201;51.100;6.814;2022-07-12T07:21:22;25.70;86.50
4374;DHT22;2201;51.100;6.814;2022-07-12T07:23:49;25.80;86.80
4374;DHT22;2201;51.100;6.814;2022-07-12T07:26:18;25.90;87.50
4374;DHT22;2201;51.100;6.814;2022-07-12T07:28:45;26.20;86.80
4374;DHT22;2201;51.100;6.814;2022-07-12T07:31:35;26.30;86.80
4374;DHT22;2201;51.100;6.814;2022-07-12T07:34:04;26.40;86.10
4374;DHT22;2201;51.100;6.814;2022-07-12T07:36:35;26.60;86.30
4374;DHT22;2201;51.100;6.814;2022-07-12T07:39:06;26.70;85.80
4374;DHT22;2201;51.100;6.814;2022-07-12T07:41:46;26.80;84.90
4374;DHT22;2201;51.100;6.814;2022-07-12T07:44:16;26.80;84.80
4374;DHT22;2201;51.100;6.814;2022-07-12T07:46:51;27.00;84.50
4374;DHT22;2201;51.100;6.814;2022-07-12T07:49:19;27.10;84.00
4374;DHT22;2201;51.100;6.814;2022-07-12T07:52:00;27.00;84.20
4374;DHT22;2201;51.100;6.814;2022-07-12T07:54:45;27.20;84.30
4374;DHT22;2201;51.100;6.814;2022-07-12T08:00:20;27.30;83.10
4374;DHT22;2201;51.100;6.814;2022-07-12T08:02:50;27.30;82.90
4374;DHT22;2201;51.100;6.814;2022-07-12T08:05:18;27.40;84.00
4374;DHT22;2201;51.100;6.814;2022-07-12T08:07:46;27.60;83.60
4374;DHT22;2201;51.100;6.814;2022-07-12T08:10:13;27.70;81.10
4374;DHT22;2201;51.100;6.814;2022-07-12T08:12:43;27.80;82.70
4374;DHT22;2201;51.100;6.814;2022-07-12T08:15:10;27.90;81.40
4374;DHT22;2201;51.100;6.814;2022-07-12T08:17:37;28.00;81.80
4374;DHT22;2201;51.100;6.814;2022-07-12T08:20:07;28.20;82.30
4374;DHT22;2201;51.100;6.814;2022-07-12T08:22:35;28.30;82.30
4374;DHT22;2201;51.100;6.814;2022-07-12T08:25:15;28.50;80.00
4374;DHT22;2201;51.100;6.814;2022-07-12T08:27:43;28.60;79.50
4374;DHT22;2201;51.100;6.814;2022-07-12T08:30:11;28.80;79.10
4374;DHT22;2201;51.100;6.814;2022-07-12T08:32:43;28.80;78.40
4374;DHT22;2201;51.100;6.814;2022-07-12T08:35:13;28.90;77.90
4374;DHT22;2201;51.100;6.814;2022-07-12T08:37:41;28.80;78.00
4374;DHT22;2201;51.100;6.814;2022-07-12T08:40:09;28.70;77.70
4374;DHT22;2201;51.100;6.814;2022-07-12T08:42:41;28.90;76.80
4374;DHT22;2201;51.100;6.814;2022-07-12T08:45:09;28.90;79.10
4374;DHT22;2201;51.100;6.814;2022-07-12T08:47:38;29.10;79.40
4374;DHT22;2201;51.100;6.814;2022-07-12T08:50:19;29.20;77.70
4374;DHT22;2201;51.100;6.814;2022-07-12T08:52:49;29.30;77.30
4374;DHT22;2201;51.100;6.814;2022-07-12T08:55:20;29.50;77.90
4374;DHT22;2201;51.100;6.814;2022-07-12T08:57:49;29.70;76.10
4374;DHT22;2201;51.100;6.814;2022-07-12T09:00:26;29.80;76.10
4374;DHT22;2201;51.100;6.814;2022-07-12T09:02:55;29.60;74.20
4374;DHT22;2201;51.100;6.814;2022-07-12T09:05:27;29.60;74.50
4374;DHT22;2201;51.100;6.814;2022-07-12T09:08:02;29.60;75.90
4374;DHT22;2201;51.100;6.814;2022-07-12T09:10:30;29.60;76.50
4374;DHT22;2201;51.100;6.814;2022-07-12T09:12:58;29.80;74.90
4374;DHT22;2201;51.100;6.814;2022-07-12T09:15:26;30.00;76.20
4374;DHT22;2201;51.100;6.814;2022-07-12T09:17:58;30.20;73.70
4374;DHT22;2201;51.100;6.814;2022-07-12T09:20:28;30.40;73.20
4374;DHT22;2201;51.100;6.814;2022-07-12T09:22:58;30.60;72.40
4374;DHT22;2201;51.100;6.814;2022-07-12T09:25:26;30.70;71.00
4374;DHT22;2201;51.100;6.814;2022-07-12T09:27:55;30.80;73.40
4374;DHT22;2201;51.100;6.814;2022-07-12T09:30:24;30.90;70.90
4374;DHT22;2201;51.100;6.814;2022-07-12T09:32:56;31.00;71.40
4374;DHT22;2201;51.100;6.814;2022-07-12T09:35:43;31.10;70.20
4374;DHT22;2201;51.100;6.814;2022-07-12T09:38:38;31.00;72.00
4374;DHT22;2201;51.100;6.814;2022-07-12T09:41:07;31.10;70.30
4374;DHT22;2201;51.100;6.814;2022-07-12T09:43:35;31.20;72.20
4374;DHT22;2201;51.100;6.814;2022-07-12T09:46:03;31.30;71.30
4374;DHT22;2201;51.100;6.814;2022-07-12T09:48:30;31.40;70.40
4374;DHT22;2201;51.100;6.814;2022-07-12T09:51:02;31.50;70.00
4374;DHT22;2201;51.100;6.814;2022-07-12T09:53:37;31.70;69.70
4374;DHT22;2201;51.100;6.814;2022-07-12T09:56:05;31.90;70.30
4374;DHT22;2201;51.100;6.814;2022-07-12T09:58:39;32.00;70.30
4374;DHT22;2201;51.100;6.814;2022-07-12T10:01:07;32.20;69.10
4374;DHT22;2201;51.100;6.814;2022-07-12T10:03:36;32.30;68.10
4374;DHT22;2201;51.100;6.814;2022-07-12T10:06:08;32.20;65.40
4374;DHT22;2201;51.100;6.814;2022-07-12T10:08:43;32.10;67.60
4374;DHT22;2201;51.100;6.814;2022-07-12T10:11:20;31.90;67.50
4374;DHT22;2201;51.100;6.814;2022-07-12T10:13:49;31.80;67.80
4374;DHT22;2201;51.100;6.814;2022-07-12T10:16:27;31.90;67.70
4374;DHT22;2201;51.100;6.814;2022-07-12T10:19:22;32.10;66.60
4374;DHT22;2201;51.100;6.814;2022-07-12T10:21:51;32.20;66.50
4374;DHT22;2201;51.100;6.814;2022-07-12T10:24:50;32.30;66.00
4374;DHT22;2201;51.100;6.814;2022-07-12T10:27:31;32.20;65.40
4374;DHT22;2201;51.100;6.814;2022-07-12T10:30:18;32.00;64.60
4374;DHT22;2201;51.100;6.814;2022-07-12T10:32:48;31.80;64.90
4374;DHT22;2201;51.100;6.814;2022-07-12T10:35:20;31.80;66.50
4374;DHT22;2201;51.100;6.814;2022-07-12T10:38:19;31.80;65.00
4374;DHT22;2201;51.100;6.814;2022-07-12T10:40:49;31.60;65.00
4374;DHT22;2201;51.100;6.814;2022-07-12T10:43:28;31.50;65.60
4374;DHT22;2201;51.100;6.814;2022-07-12T10:46:22;31.50;65.30
4374;DHT22;2201;51.100;6.814;2022-07-12T10:49:24;31.90;65.90
4374;DHT22;2201;51.100;6.814;2022-07-12T10:52:16;32.10;64.80
4374;DHT22;2201;51.100;6.814;2022-07-12T10:55:17;32.50;64.00
4374;DHT22;2201;51.100;6.814;2022-07-12T10:57:46;32.60;62.50
4374;DHT22;2201;51.100;6.814;2022-07-12T11:00:16;32.80;62.70
4374;DHT22;2201;51.100;6.814;2022-07-12T11:02:49;33.00;62.90
4374;DHT22;2201;51.100;6.814;2022-07-12T11:05:16;33.10;62.70
4374;DHT22;2201;51.100;6.814;2022-07-12T11:07:50;33.20;61.20
4374;DHT22;2201;51.100;6.814;2022-07-12T11:10:19;33.10;60.90
4374;DHT22;2201;51.100;6.814;2022-07-12T11:12:46;33.10;62.50
4374;DHT22;2201;51.100;6.814;2022-07-12T11:15:35;32.70;59.70
4374;DHT22;2201;51.100;6.814;2022-07-12T11:18:07;32.10;61.10
4374;DHT22;2201;51.100;6.814;2022-07-12T11:20:37;32.30;61.70
4374;DHT22;2201;51.100;6.814;2022-07-12T11:23:07;32.50;62.70
4374;DHT22;2201;51.100;6.814;2022-07-12T11:25:37;32.90;61.80
4374;DHT22;2201;51.100;6.814;2022-07-12T11:28:05;33.20;61.40
4374;DHT22;2201;51.100;6.814;2022-07-12T11:30:47;33.30;61.80
4374;DHT22;2201;51.100;6.814;2022-07-12T11:33:15;33.50;60.80
4374;DHT22;2201;51.100;6.814;2022-07-12T11:35:44;33.50;60.00
4374;DHT22;2201;51.100;6.814;2022-07-12T11:38:11;33.70;61.20
4374;DHT22;2201;51.100;6.814;2022-07-12T11:40:43;33.90;60.20
4374;DHT22;2201;51.100;6.814;2022-07-12T11:43:15;33.90;58.60
4374;DHT22;2201;51.100;6.814;2022-07-12T11:45:43;33.90;60.50
4374;DHT22;2201;51.100;6.814;2022-07-12T11:48:11;34.00;60.40
4374;DHT22;2201;51.100;6.814;2022-07-12T11:50:43;34.30;60.50
4374;DHT22;2201;51.100;6.814;2022-07-12T11:53:31;34.50;60.60
4374;DHT22;2201;51.100;6.814;2022-07-12T11:56:16;34.70;58.40
4374;DHT22;2201;51.100;6.814;2022-07-12T11:58:55;34.70;61.00
4374;DHT22;2201;51.100;6.814;2022-07-12T12:01:22;34.80;60.00
4374;DHT22;2201;51.100;6.814;2022-07-12T12:03:52;34.90;60.10
4374;DHT22;2201;51.100;6.814;2022-07-12T12:06:21;34.90;60.10
4374;DHT22;2201;51.100;6.814;2022-07-12T12:08:51;34.90;59.30
4374;DHT22;2201;51.100;6.814;2022-07-12T12:11:26;35.00;58.80
4374;DHT22;2201;51.100;6.814;2022-07-12T12:13:56;35.00;57.80
4374;DHT22;2201;51.100;6.814;2022-07-12T12:16:25;35.10;58.30
4374;DHT22;2201;51.100;6.814;2022-07-12T12:18:52;35.20;56.30
4374;DHT22;2201;51.100;6.814;2022-07-12T12:21:25;35.00;55.10
4374;DHT22;2201;51.100;6.814;2022-07-12T12:24:08;34.60;55.80
4374;DHT22;2201;51.100;6.814;2022-07-12T12:26:38;34.20;55.80
4374;DHT22;2201;51.100;6.814;2022-07-12T12:29:05;33.60;56.90
4374;DHT22;2201;51.100;6.814;2022-07-12T12:31:32;33.50;59.10
4374;DHT22;2201;51.100;6.814;2022-07-12T12:34:00;33.50;56.60
4374;DHT22;2201;51.100;6.814;2022-07-12T12:36:37;33.40;58.70
4374;DHT22;2201;51.100;6.814;2022-07-12T12:39:04;33.70;58.40
4374;DHT22;2201;51.100;6.814;2022-07-12T12:41:42;33.50;57.40
4374;DHT22;2201;51.100;6.814;2022-07-12T12:44:15;33.60;57.80
4374;DHT22;2201;51.100;6.814;2022-07-12T12:46:44;33.90;58.00
4374;DHT22;2201;51.100;6.814;2022-07-12T12:49:12;33.90;57.80
4374;DHT22;2201;51.100;6.814;2022-07-12T12:51:51;34.00;58.30
4374;DHT22;2201;51.100;6.814;2022-07-12T12:54:31;34.10;57.40
4374;DHT22;2201;51.100;6.814;2022-07-12T12:57:08;34.10;56.60
4374;DHT22;2201;51.100;6.814;2022-07-12T12:59:36;34.20;58.70
4374;DHT22;2201;51.100;6.814;2022-07-12T13:02:07;34.50;58.60
4374;DHT22;2201;51.100;6.814;2022-07-12T13:04:37;34.70;57.10
4374;DHT22;2201;51.100;6.814;2022-07-12T13:07:06;34.80;56.20
4374;DHT22;2201;51.100;6.814;2022-07-12T13:09:34;35.00;57.20
4374;DHT22;2201;51.100;6.814;2022-07-12T13:12:04;35.10;57.60
4374;DHT22;2201;51.100;6.814;2022-07-12T13:14:31;35.20;55.70
4374;DHT22;2201;51.100;6.814;2022-07-12T13:16:59;35.20;57.30
4374;DHT22;2201;51.100;6.814;2022-07-12T13:19:27;35.30;57.20
4374;DHT22;2201;51.100;6.814;2022-07-12T13:21:56;35.20;55.90
4374;DHT22;2201;51.100;6.814;2022-07-12T13:24:27;35.00;57.30
4374;DHT22;2201;51.100;6.814;2022-07-12T13:26:58;35.10;56.10
4374;DHT22;2201;51.100;6.814;2022-07-12T13:29:27;35.30;56.10
4374;DHT22;2201;51.100;6.814;2022-07-12T13:31:59;35.30;55.50
4374;DHT22;2201;51.100;6.814;2022-07-12T13:34:40;35.40;55.30
4374;DHT22;2201;51.100;6.814;2022-07-12T13:37:08;35.40;53.30
4374;DHT22;2201;51.100;6.814;2022-07-12T13:39:35;35.50;55.00
4374;DHT22;2201;51.100;6.814;2022-07-12T13:42:22;35.50;54.10
4374;DHT22;2201;51.100;6.814;2022-07-12T13:44:52;35.40;53.30
4374;DHT22;2201;51.100;6.814;2022-07-12T13:47:19;35.40;53.90
4374;DHT22;2201;51.100;6.814;2022-07-12T13:49:47;35.30;52.20
4374;DHT22;2201;51.100;6.814;2022-07-12T13:52:17;35.20;53.30
4374;DHT22;2201;51.100;6.814;2022-07-12T13:54:45;35.20;53.40
4374;DHT22;2201;51.100;6.814;2022-07-12T13:57:12;35.30;54.70
4374;DHT22;2201;51.100;6.814;2022-07-12T13:59:41;35.40;52.30
4374;DHT22;2201;51.100;6.814;2022-07-12T14:02:09;35.20;53.50
4374;DHT22;2201;51.100;6.814;2022-07-12T14:04:36;35.20;55.80
4374;DHT22;2201;51.100;6.814;2022-07-12T14:07:09;35.20;53.30
4374;DHT22;2201;51.100;6.814;2022-07-12T14:09:37;35.20;52.70
4374;DHT22;2201;51.100;6.814;2022-07-12T14:12:05;35.10;52.40
4374;DHT22;2201;51.100;6.814;2022-07-12T14:14:34;35.00;54.30
4374;DHT22;2201;51.100;6.814;2022-07-12T14:17:22;35.00;53.70
4374;DHT22;2201;51.100;6.814;2022-07-12T14:19:49;34.90;54.90
4374;DHT22;2201;51.100;6.814;2022-07-12T14:22:17;34.90;54.90
4374;DHT22;2201;51.100;6.814;2022-07-12T14:24:47;35.00;55.00
4374;DHT22;2201;51.100;6.814;2022-07-12T14:27:17;35.10;55.00
4374;DHT22;2201;51.100;6.814;2022-07-12T14:29:51;35.20;53.70
4374;DHT22;2201;51.100;6.814;2022-07-12T14:32:18;35.30;55.30
4374;DHT22;2201;51.100;6.814;2022-07-12T14:35:00;35.40;54.00
4374;DHT22;2201;51.100;6.814;2022-07-12T14:37:35;35.30;51.90
4374;DHT22;2201;51.100;6.814;2022-07-12T14:40:09;35.20;53.10
4374;DHT22;2201;51.100;6.814;2022-07-12T14:42:44;35.00;54.80
4374;DHT22;2201;51.100;6.814;2022-07-12T14:45:11;34.90;54.10
4374;DHT22;2201;51.100;6.814;2022-07-12T14:47:39;35.00;52.70
4374;DHT22;2201;51.100;6.814;2022-07-12T14:50:08;35.00;54.00
4374;DHT22;2201;51.100;6.814;2022-07-12T14:52:35;35.10;54.10
4374;DHT22;2201;51.100;6.814;2022-07-12T14:55:03;35.10;52.80
4374;DHT22;2201;51.100;6.814;2022-07-12T14:57:30;35.00;53.70
4374;DHT22;2201;51.100;6.814;2022-07-12T15:00:00;35.10;54.30
4374;DHT22;2201;51.100;6.814;2022-07-12T15:02:33;34.90;53.10
4374;DHT22;2201;51.100;6.814;2022-07-12T15:05:03;34.90;53.90
4374;DHT22;2201;51.100;6.814;2022-07-12T15:07:37;34.70;52.40
4374;DHT22;2201;51.100;6.814;2022-07-12T15:10:25;34.70;54.40
4374;DHT22;2201;51.100;6.814;2022-07-12T15:12:53;34.60;54.10
4374;DHT22;2201;51.100;6.814;2022-07-12T15:15:24;34.50;54.40
4374;DHT22;2201;51.100;6.814;2022-07-12T15:17:51;34.40;53.10
4374;DHT22;2201;51.100;6.814;2022-07-12T15:20:21;34.40;55.20
4374;DHT22;2201;51.100;6.814;2022-07-12T15:22:50;34.40;54.70
4374;DHT22;2201;51.100;6.814;2022-07-12T15:25:17;34.50;55.20
4374;DHT22;2201;51.100;6.814;2022-07-12T15:27:47;34.50;54.50
4374;DHT22;2201;51.100;6.814;2022-07-12T15:30:14;34.70;54.80
4374;DHT22;2201;51.100;6.814;2022-07-12T15:32:44;34.70;53.00
4374;DHT22;2201;51.100;6.814;2022-07-12T15:35:11;34.70;54.40
4374;DHT22;2201;51.100;6.814;2022-07-12T15:37:39;34.60;54.10
4374;DHT22;2201;51.100;6.814;2022-07-12T15:40:16;34.60;54.70
4374;DHT22;2201;51.100;6.814;2022-07-12T15:42:48;34.60;54.70
4374;DHT22;2201;51.100;6.814;2022-07-12T15:45:19;34.40;54.60
4374;DHT22;2201;51.100;6.814;2022-07-12T15:47:52;34.10;54.40
4374;DHT22;2201;51.100;6.814;2022-07-12T15:50:24;33.90;54.60
4374;DHT22;2201;51.100;6.814;2022-07-12T15:52:57;33.80;54.20
4374;DHT22;2201;51.100;6.814;2022-07-12T15:55:43;33.70;55.20
4374;DHT22;2201;51.100;6.814;2022-07-12T15:58:13;33.60;55.30
4374;DHT22;2201;51.100;6.814;2022-07-12T16:00:52;33.60;56.00
4374;DHT22;2201;51.100;6.814;2022-07-12T16:03:29;33.50;57.20
4374;DHT22;2201;51.100;6.814;2022-07-12T16:06:06;33.60;57.10
4374;DHT22;2201;51.100;6.814;2022-07-12T16:08:43;33.60;56.10
4374;DHT22;2201;51.100;6.814;2022-07-12T16:11:15;33.70;56.00
4374;DHT22;2201;51.100;6.814;2022-07-12T16:13:44;33.80;56.00
4374;DHT22;2201;51.100;6.814;2022-07-12T16:16:23;33.80;56.00
4374;DHT22;2201;51.100;6.814;2022-07-12T16:18:58;34.00;56.20
4374;DHT22;2201;51.100;6.814;2022-07-12T16:21:28;34.00;56.00
4374;DHT22;2201;51.100;6.814;2022-07-12T16:24:03;33.90;56.20
4374;DHT22;2201;51.100;6.814;2022-07-12T16:27:09;33.80;56.50
4374;DHT22;2201;51.100;6.814;2022-07-12T16:30:00;33.60;55.60